sensor_id;sensor_type;location;lat;lon;timestamp;P1;durP1;ratioP1;P2;durP2;ratioP2
16266;SDS011;8241;48.786;9.250;2022-07-29T00:02:06;2.20;;;2.10;;
16266;SDS011;8241;48.786;9.250;2022-07-29T00:04:33;2.73;;;2.63;;
16266;SDS011;8241;48.786;9.250;2022-07-29T00:07:01;2.50;;;2.40;;
16266;SDS011;8241;48.786;9.250;2022-07-29T00:09:30;2.70;;;2.60;;
16266;SDS011;8241;48.786;9.250;2022-07-29T00:11:59;2.40;;;2.30;;
16266;SDS011;8241;48.786;9.250;2022-07-29T00:14:28;2.73;;;2.63;;
16266;SDS011;8241;48.786;9.250;2022-07-29T00:16:55;3.70;;;3.50;;
16266;SDS011;8241;48.786;9.250;2022-07-29T00:19:22;2.70;;;2.60;;
16266;SDS011;8241;48.786;9.250;2022-07-29T00:21:49;3.37;;;3.17;;
16266;SDS011;8241;48.786;9.250;2022-07-29T00:24:18;3.60;;;3.30;;
16266;SDS011;8241;48.786;9.250;2022-07-29T00:26:46;2.30;;;2.20;;
16266;SDS011;8241;48.786;9.250;2022-07-29T00:29:16;2.53;;;2.43;;
16266;SDS011;8241;48.786;9.250;2022-07-29T00:31:44;2.30;;;2.20;;
16266;SDS011;8241;48.786;9.250;2022-07-29T00:34:11;2.87;;;2.77;;
16266;SDS011;8241;48.786;9.250;2022-07-29T00:36:52;2.53;;;2.43;;
16266;SDS011;8241;48.786;9.250;2022-07-29T00:39:19;2.20;;;2.10;;
16266;SDS011;8241;48.786;9.250;2022-07-29T00:41:49;2.37;;;2.27;;
16266;SDS011;8241;48.786;9.250;2022-07-29T00:44:16;2.83;;;2.73;;
16266;SDS011;8241;48.786;9.250;2022-07-29T00:46:43;2.57;;;2.40;;
16266;SDS011;8241;48.786;9.250;2022-07-29T00:49:10;3.33;;;3.13;;
16266;SDS011;8241;48.786;9.250;2022-07-29T00:51:37;2.53;;;2.43;;
16266;SDS011;8241;48.786;9.250;2022-07-29T00:54:05;2.53;;;2.43;;
16266;SDS011;8241;48.786;9.250;2022-07-29T00:56:34;3.27;;;3.07;;
16266;SDS011;8241;48.786;9.250;2022-07-29T00:59:02;2.40;;;2.30;;
16266;SDS011;8241;48.786;9.250;2022-07-29T01:01:29;2.60;;;2.40;;
16266;SDS011;8241;48.786;9.250;2022-07-29T01:03:56;3.13;;;2.97;;
16266;SDS011;8241;48.786;9.250;2022-07-29T01:06:23;2.80;;;2.70;;
16266;SDS011;8241;48.786;9.250;2022-07-29T01:08:50;2.63;;;2.53;;
16266;SDS011;8241;48.786;9.250;2022-07-29T01:11:18;2.97;;;2.87;;
16266;SDS011;8241;48.786;9.250;2022-07-29T01:13:46;3.47;;;3.27;;
16266;SDS011;8241;48.786;9.250;2022-07-29T01:16:20;2.30;;;2.20;;
16266;SDS011;8241;48.786;9.250;2022-07-29T01:18:52;2.53;;;2.43;;
16266;SDS011;8241;48.786;9.250;2022-07-29T01:21:31;2.60;;;2.50;;
16266;SDS011;8241;48.786;9.250;2022-07-29T01:24:29;2.47;;;2.37;;
16266;SDS011;8241;48.786;9.250;2022-07-29T01:27:04;2.33;;;2.23;;
16266;SDS011;8241;48.786;9.250;2022-07-29T01:29:58;2.73;;;2.53;;
16266;SDS011;8241;48.786;9.250;2022-07-29T01:32:33;2.13;;;2.03;;
16266;SDS011;8241;48.786;9.250;2022-07-29T01:35:03;2.63;;;2.53;;
16266;SDS011;8241;48.786;9.250;2022-07-29T01:40:13;2.70;;;2.60;;
16266;SDS011;8241;48.786;9.250;2022-07-29T01:42:48;2.00;;;2.00;;
16266;SDS011;8241;48.786;9.250;2022-07-29T01:45:20;14.47;;;2.70;;
16266;SDS011;8241;48.786;9.250;2022-07-29T01:47:53;2.60;;;2.50;;
16266;SDS011;8241;48.786;9.250;2022-07-29T01:50:26;3.10;;;2.90;;
16266;SDS011;8241;48.786;9.250;2022-07-29T01:52:58;7.43;;;3.23;;
16266;SDS011;8241;48.786;9.250;2022-07-29T01:55:28;2.20;;;2.10;;
16266;SDS011;8241;48.786;9.250;2022-07-29T01:57:58;2.50;;;2.40;;
16266;SDS011;8241;48.786;9.250;2022-07-29T02:00:28;2.87;;;2.67;;
16266;SDS011;8241;48.786;9.250;2022-07-29T02:03:02;2.40;;;2.30;;
16266;SDS011;8241;48.786;9.250;2022-07-29T02:05:33;2.40;;;2.30;;
16266;SDS011;8241;48.786;9.250;2022-07-29T02:08:03;2.53;;;2.43;;
16266;SDS011;8241;48.786;9.250;2022-07-29T02:10:31;2.27;;;2.17;;
16266;SDS011;8241;48.786;9.250;2022-07-29T02:12:59;2.27;;;2.17;;
16266;SDS011;8241;48.786;9.250;2022-07-29T02:15:30;2.67;;;2.53;;
16266;SDS011;8241;48.786;9.250;2022-07-29T02:18:02;2.53;;;2.43;;
16266;SDS011;8241;48.786;9.250;2022-07-29T02:20:32;2.20;;;2.10;;
16266;SDS011;8241;48.786;9.250;2022-07-29T02:23:00;2.80;;;2.70;;
16266;SDS011;8241;48.786;9.250;2022-07-29T02:25:31;2.20;;;2.10;;
16266;SDS011;8241;48.786;9.250;2022-07-29T02:28:01;2.57;;;2.47;;
16266;SDS011;8241;48.786;9.250;2022-07-29T02:30:31;2.10;;;2.00;;
16266;SDS011;8241;48.786;9.250;2022-07-29T02:32:59;2.23;;;2.13;;
16266;SDS011;8241;48.786;9.250;2022-07-29T02:35:27;2.10;;;2.00;;
16266;SDS011;8241;48.786;9.250;2022-07-29T02:38:03;2.20;;;2.13;;
16266;SDS011;8241;48.786;9.250;2022-07-29T02:40:48;2.50;;;2.40;;
16266;SDS011;8241;48.786;9.250;2022-07-29T02:43:16;2.30;;;2.20;;
16266;SDS011;8241;48.786;9.250;2022-07-29T02:45:46;2.20;;;2.10;;
16266;SDS011;8241;48.786;9.250;2022-07-29T02:48:17;1.80;;;1.80;;
16266;SDS011;8241;48.786;9.250;2022-07-29T02:50:55;2.03;;;1.93;;
16266;SDS011;8241;48.786;9.250;2022-07-29T02:53:33;2.73;;;2.53;;
16266;SDS011;8241;48.786;9.250;2022-07-29T02:56:04;2.10;;;2.00;;
16266;SDS011;8241;48.786;9.250;2022-07-29T02:58:38;2.20;;;2.10;;
16266;SDS011;8241;48.786;9.250;2022-07-29T03:01:11;2.23;;;2.13;;
16266;SDS011;8241;48.786;9.250;2022-07-29T03:03:40;2.87;;;2.77;;
16266;SDS011;8241;48.786;9.250;2022-07-29T03:06:11;2.40;;;2.30;;
16266;SDS011;8241;48.786;9.250;2022-07-29T03:08:39;2.33;;;2.23;;
16266;SDS011;8241;48.786;9.250;2022-07-29T03:11:07;2.20;;;2.10;;
16266;SDS011;8241;48.786;9.250;2022-07-29T03:13:35;2.23;;;2.13;;
16266;SDS011;8241;48.786;9.250;2022-07-29T03:16:02;2.40;;;2.30;;
16266;SDS011;8241;48.786;9.250;2022-07-29T03:18:32;2.30;;;2.20;;
16266;SDS011;8241;48.786;9.250;2022-07-29T03:21:00;2.70;;;2.57;;
16266;SDS011;8241;48.786;9.250;2022-07-29T03:23:27;1.97;;;1.97;;
16266;SDS011;8241;48.786;9.250;2022-07-29T03:25:54;2.53;;;2.43;;
16266;SDS011;8241;48.786;9.250;2022-07-29T03:28:21;2.43;;;2.33;;
16266;SDS011;8241;48.786;9.250;2022-07-29T03:30:49;2.50;;;2.40;;
16266;SDS011;8241;48.786;9.250;2022-07-29T03:33:16;2.50;;;2.40;;
16266;SDS011;8241;48.786;9.250;2022-07-29T03:35:45;2.43;;;2.33;;
16266;SDS011;8241;48.786;9.250;2022-07-29T03:38:12;2.30;;;2.20;;
16266;SDS011;8241;48.786;9.250;2022-07-29T03:40:40;2.43;;;2.33;;
16266;SDS011;8241;48.786;9.250;2022-07-29T03:43:16;2.43;;;2.23;;
16266;SDS011;8241;48.786;9.250;2022-07-29T03:45:45;2.77;;;2.57;;
16266;SDS011;8241;48.786;9.250;2022-07-29T03:48:19;2.50;;;2.40;;
16266;SDS011;8241;48.786;9.250;2022-07-29T03:50:52;3.43;;;3.23;;
16266;SDS011;8241;48.786;9.250;2022-07-29T03:53:19;2.50;;;2.40;;
16266;SDS011;8241;48.786;9.250;2022-07-29T03:55:47;2.20;;;2.10;;
16266;SDS011;8241;48.786;9.250;2022-07-29T03:58:18;2.30;;;2.20;;
16266;SDS011;8241;48.786;9.250;2022-07-29T04:00:46;2.37;;;2.27;;
16266;SDS011;8241;48.786;9.250;2022-07-29T04:03:13;2.70;;;2.60;;
16266;SDS011;8241;48.786;9.250;2022-07-29T04:05:40;3.43;;;3.20;;
16266;SDS011;8241;48.786;9.250;2022-07-29T04:08:13;2.77;;;2.63;;
16266;SDS011;8241;48.786;9.250;2022-07-29T04:10:41;3.00;;;2.90;;
16266;SDS011;8241;48.786;9.250;2022-07-29T04:13:09;2.40;;;2.30;;
16266;SDS011;8241;48.786;9.250;2022-07-29T04:15:37;2.33;;;2.23;;
16266;SDS011;8241;48.786;9.250;2022-07-29T04:18:04;2.40;;;2.30;;
16266;SDS011;8241;48.786;9.250;2022-07-29T04:20:31;2.50;;;2.40;;
16266;SDS011;8241;48.786;9.250;2022-07-29T04:22:58;2.40;;;2.30;;
16266;SDS011;8241;48.786;9.250;2022-07-29T04:25:26;2.50;;;2.40;;
16266;SDS011;8241;48.786;9.250;2022-07-29T04:27:53;2.40;;;2.30;;
16266;SDS011;8241;48.786;9.250;2022-07-29T04:30:30;2.87;;;2.70;;
16266;SDS011;8241;48.786;9.250;2022-07-29T04:33:00;2.70;;;2.60;;
16266;SDS011;8241;48.786;9.250;2022-07-29T04:35:28;2.93;;;2.73;;
16266;SDS011;8241;48.786;9.250;2022-07-29T04:37:55;2.10;;;2.07;;
16266;SDS011;8241;48.786;9.250;2022-07-29T04:40:22;2.93;;;2.83;;
16266;SDS011;8241;48.786;9.250;2022-07-29T04:42:51;2.70;;;2.60;;
16266;SDS011;8241;48.786;9.250;2022-07-29T04:45:17;2.70;;;2.60;;
16266;SDS011;8241;48.786;9.250;2022-07-29T04:47:44;2.30;;;2.20;;
16266;SDS011;8241;48.786;9.250;2022-07-29T04:50:12;2.57;;;2.47;;
16266;SDS011;8241;48.786;9.250;2022-07-29T04:52:41;2.63;;;2.53;;
16266;SDS011;8241;48.786;9.250;2022-07-29T04:55:17;2.60;;;2.50;;
16266;SDS011;8241;48.786;9.250;2022-07-29T04:57:45;2.67;;;2.57;;
16266;SDS011;8241;48.786;9.250;2022-07-29T05:00:13;2.87;;;2.73;;
16266;SDS011;8241;48.786;9.250;2022-07-29T05:02:40;2.60;;;2.50;;
16266;SDS011;8241;48.786;9.250;2022-07-29T05:05:09;2.77;;;2.67;;
16266;SDS011;8241;48.786;9.250;2022-07-29T05:07:37;2.47;;;2.37;;
16266;SDS011;8241;48.786;9.250;2022-07-29T05:10:04;2.90;;;2.80;;
16266;SDS011;8241;48.786;9.250;2022-07-29T05:12:34;2.80;;;2.70;;
16266;SDS011;8241;48.786;9.250;2022-07-29T05:15:03;3.27;;;3.07;;
16266;SDS011;8241;48.786;9.250;2022-07-29T05:17:37;2.73;;;2.63;;
16266;SDS011;8241;48.786;9.250;2022-07-29T05:20:05;3.13;;;2.93;;
16266;SDS011;8241;48.786;9.250;2022-07-29T05:22:36;3.23;;;3.03;;
16266;SDS011;8241;48.786;9.250;2022-07-29T05:25:05;3.30;;;3.00;;
16266;SDS011;8241;48.786;9.250;2022-07-29T05:27:34;2.27;;;2.17;;
16266;SDS011;8241;48.786;9.250;2022-07-29T05:30:02;3.33;;;3.13;;
16266;SDS011;8241;48.786;9.250;2022-07-29T05:32:30;2.53;;;2.43;;
16266;SDS011;8241;48.786;9.250;2022-07-29T05:35:05;2.47;;;2.37;;
16266;SDS011;8241;48.786;9.250;2022-07-29T05:37:34;2.53;;;2.43;;
16266;SDS011;8241;48.786;9.250;2022-07-29T05:40:02;2.20;;;2.10;;
16266;SDS011;8241;48.786;9.250;2022-07-29T05:42:31;1.93;;;1.93;;
16266;SDS011;8241;48.786;9.250;2022-07-29T05:44:59;6.93;;;2.57;;
16266;SDS011;8241;48.786;9.250;2022-07-29T05:47:26;2.40;;;2.20;;
16266;SDS011;8241;48.786;9.250;2022-07-29T05:49:53;2.30;;;2.20;;
16266;SDS011;8241;48.786;9.250;2022-07-29T05:52:21;2.27;;;2.17;;
16266;SDS011;8241;48.786;9.250;2022-07-29T05:54:48;2.30;;;2.20;;
16266;SDS011;8241;48.786;9.250;2022-07-29T05:57:16;2.73;;;2.63;;
16266;SDS011;8241;48.786;9.250;2022-07-29T05:59:44;2.87;;;2.77;;
16266;SDS011;8241;48.786;9.250;2022-07-29T06:02:11;1.93;;;1.90;;
16266;SDS011;8241;48.786;9.250;2022-07-29T06:04:41;2.83;;;2.63;;
16266;SDS011;8241;48.786;9.250;2022-07-29T06:07:08;2.20;;;2.10;;
16266;SDS011;8241;48.786;9.250;2022-07-29T06:09:37;2.33;;;2.23;;
16266;SDS011;8241;48.786;9.250;2022-07-29T06:12:05;2.30;;;2.20;;
16266;SDS011;8241;48.786;9.250;2022-07-29T06:14:32;7.80;;;2.93;;
16266;SDS011;8241;48.786;9.250;2022-07-29T06:17:00;2.23;;;2.13;;
16266;SDS011;8241;48.786;9.250;2022-07-29T06:19:45;1.90;;;1.90;;
16266;SDS011;8241;48.786;9.250;2022-07-29T06:22:12;2.57;;;2.47;;
16266;SDS011;8241;48.786;9.250;2022-07-29T06:24:54;2.40;;;2.30;;
16266;SDS011;8241;48.786;9.250;2022-07-29T06:27:22;2.30;;;2.20;;
16266;SDS011;8241;48.786;9.250;2022-07-29T06:29:49;2.60;;;2.50;;
16266;SDS011;8241;48.786;9.250;2022-07-29T06:32:18;2.30;;;2.20;;
16266;SDS011;8241;48.786;9.250;2022-07-29T06:34:51;1.97;;;1.97;;
16266;SDS011;8241;48.786;9.250;2022-07-29T06:40:41;2.90;;;2.80;;
16266;SDS011;8241;48.786;9.250;2022-07-29T06:43:32;2.33;;;2.23;;
16266;SDS011;8241;48.786;9.250;2022-07-29T06:46:02;2.30;;;2.20;;
16266;SDS011;8241;48.786;9.250;2022-07-29T06:48:45;2.20;;;2.17;;
16266;SDS011;8241;48.786;9.250;2022-07-29T06:51:22;2.40;;;2.30;;
16266;SDS011;8241;48.786;9.250;2022-07-29T06:53:50;2.58;;;2.47;;
16266;SDS011;8241;48.786;9.250;2022-07-29T06:56:21;2.60;;;2.50;;
16266;SDS011;8241;48.786;9.250;2022-07-29T06:58:48;2.33;;;2.22;;
16266;SDS011;8241;48.786;9.250;2022-07-29T07:01:15;2.35;;;2.25;;
16266;SDS011;8241;48.786;9.250;2022-07-29T07:03:48;1.98;;;1.98;;
16266;SDS011;8241;48.786;9.250;2022-07-29T07:06:15;2.38;;;2.28;;
16266;SDS011;8241;48.786;9.250;2022-07-29T07:08:48;2.20;;;2.10;;
16266;SDS011;8241;48.786;9.250;2022-07-29T07:11:16;2.20;;;2.10;;
16266;SDS011;8241;48.786;9.250;2022-07-29T07:13:44;2.60;;;2.50;;
16266;SDS011;8241;48.786;9.250;2022-07-29T07:16:17;2.50;;;2.40;;
16266;SDS011;8241;48.786;9.250;2022-07-29T07:18:44;2.58;;;2.47;;
16266;SDS011;8241;48.786;9.250;2022-07-29T07:21:11;2.80;;;2.70;;
16266;SDS011;8241;48.786;9.250;2022-07-29T07:23:39;2.20;;;2.10;;
16266;SDS011;8241;48.786;9.250;2022-07-29T07:26:11;2.30;;;2.20;;
16266;SDS011;8241;48.786;9.250;2022-07-29T07:28:38;2.90;;;2.80;;
16266;SDS011;8241;48.786;9.250;2022-07-29T07:31:06;2.45;;;2.35;;
16266;SDS011;8241;48.786;9.250;2022-07-29T07:33:35;2.70;;;2.60;;
16266;SDS011;8241;48.786;9.250;2022-07-29T07:36:03;2.60;;;2.50;;
16266;SDS011;8241;48.786;9.250;2022-07-29T07:38:30;2.50;;;2.40;;
16266;SDS011;8241;48.786;9.250;2022-07-29T07:40:57;4.70;;;2.30;;
16266;SDS011;8241;48.786;9.250;2022-07-29T07:43:24;2.78;;;2.67;;
16266;SDS011;8241;48.786;9.250;2022-07-29T07:45:53;2.40;;;2.30;;
16266;SDS011;8241;48.786;9.250;2022-07-29T07:48:21;2.47;;;2.38;;
16266;SDS011;8241;48.786;9.250;2022-07-29T07:53:56;3.00;;;2.90;;
16266;SDS011;8241;48.786;9.250;2022-07-29T07:56:38;2.70;;;2.60;;
16266;SDS011;8241;48.786;9.250;2022-07-29T07:59:05;2.00;;;2.00;;
16266;SDS011;8241;48.786;9.250;2022-07-29T08:01:42;2.25;;;2.17;;
16266;SDS011;8241;48.786;9.250;2022-07-29T08:04:12;2.13;;;2.08;;
16266;SDS011;8241;48.786;9.250;2022-07-29T08:06:39;2.50;;;2.40;;
16266;SDS011;8241;48.786;9.250;2022-07-29T08:09:07;2.78;;;2.67;;
16266;SDS011;8241;48.786;9.250;2022-07-29T08:11:34;2.65;;;2.55;;
16266;SDS011;8241;48.786;9.250;2022-07-29T08:14:01;2.90;;;2.80;;
16266;SDS011;8241;48.786;9.250;2022-07-29T08:16:33;2.80;;;2.70;;
16266;SDS011;8241;48.786;9.250;2022-07-29T08:19:04;3.70;;;3.40;;
16266;SDS011;8241;48.786;9.250;2022-07-29T08:24:06;2.50;;;2.40;;
16266;SDS011;8241;48.786;9.250;2022-07-29T08:29:36;2.30;;;2.20;;
16266;SDS011;8241;48.786;9.250;2022-07-29T08:32:04;3.05;;;2.85;;
16266;SDS011;8241;48.786;9.250;2022-07-29T08:34:31;2.67;;;2.58;;
16266;SDS011;8241;48.786;9.250;2022-07-29T08:37:00;2.55;;;2.45;;
16266;SDS011;8241;48.786;9.250;2022-07-29T08:39:41;2.38;;;2.28;;
16266;SDS011;8241;48.786;9.250;2022-07-29T08:42:08;2.60;;;2.50;;
16266;SDS011;8241;48.786;9.250;2022-07-29T08:44:37;3.00;;;2.80;;
16266;SDS011;8241;48.786;9.250;2022-07-29T08:49:42;13.65;;;2.53;;
16266;SDS011;8241;48.786;9.250;2022-07-29T08:52:15;2.17;;;2.13;;
16266;SDS011;8241;48.786;9.250;2022-07-29T08:54:47;2.15;;;2.05;;
16266;SDS011;8241;48.786;9.250;2022-07-29T08:57:28;3.13;;;2.92;;
16266;SDS011;8241;48.786;9.250;2022-07-29T09:00:03;2.60;;;2.50;;
16266;SDS011;8241;48.786;9.250;2022-07-29T09:02:33;2.60;;;2.50;;
16266;SDS011;8241;48.786;9.250;2022-07-29T09:05:03;2.70;;;2.60;;
16266;SDS011;8241;48.786;9.250;2022-07-29T09:07:36;2.70;;;2.60;;
16266;SDS011;8241;48.786;9.250;2022-07-29T09:10:08;3.13;;;3.03;;
16266;SDS011;8241;48.786;9.250;2022-07-29T09:12:35;3.38;;;3.17;;
16266;SDS011;8241;48.786;9.250;2022-07-29T09:15:09;2.97;;;2.88;;
16266;SDS011;8241;48.786;9.250;2022-07-29T09:17:40;3.05;;;2.88;;
16266;SDS011;8241;48.786;9.250;2022-07-29T09:20:08;2.72;;;2.63;;
16266;SDS011;8241;48.786;9.250;2022-07-29T09:28:06;2.80;;;2.70;;
16266;SDS011;8241;48.786;9.250;2022-07-29T09:30:49;3.00;;;2.90;;
16266;SDS011;8241;48.786;9.250;2022-07-29T09:33:33;3.38;;;3.17;;
16266;SDS011;8241;48.786;9.250;2022-07-29T09:39:06;3.05;;;2.95;;
16266;SDS011;8241;48.786;9.250;2022-07-29T09:41:46;3.30;;;3.13;;
16266;SDS011;8241;48.786;9.250;2022-07-29T09:46:57;2.65;;;2.55;;
16266;SDS011;8241;48.786;9.250;2022-07-29T09:49:33;3.00;;;2.90;;
16266;SDS011;8241;48.786;9.250;2022-07-29T09:57:46;3.30;;;3.20;;
16266;SDS011;8241;48.786;9.250;2022-07-29T10:00:17;3.42;;;3.22;;
16266;SDS011;8241;48.786;9.250;2022-07-29T10:02:50;3.03;;;2.92;;
16266;SDS011;8241;48.786;9.250;2022-07-29T10:05:20;3.40;;;3.30;;
16266;SDS011;8241;48.786;9.250;2022-07-29T10:07:54;4.22;;;3.92;;
16266;SDS011;8241;48.786;9.250;2022-07-29T10:10:25;3.08;;;2.97;;
16266;SDS011;8241;48.786;9.250;2022-07-29T10:12:56;2.85;;;2.75;;
16266;SDS011;8241;48.786;9.250;2022-07-29T10:15:26;4.22;;;3.45;;
16266;SDS011;8241;48.786;9.250;2022-07-29T10:17:55;3.28;;;3.17;;
16266;SDS011;8241;48.786;9.250;2022-07-29T10:20:23;3.30;;;3.20;;
16266;SDS011;8241;48.786;9.250;2022-07-29T10:25:37;2.63;;;2.53;;
16266;SDS011;8241;48.786;9.250;2022-07-29T10:28:05;2.70;;;2.60;;
16266;SDS011;8241;48.786;9.250;2022-07-29T10:30:37;2.90;;;2.80;;
16266;SDS011;8241;48.786;9.250;2022-07-29T10:33:10;3.03;;;2.92;;
16266;SDS011;8241;48.786;9.250;2022-07-29T10:36:18;2.88;;;2.78;;
16266;SDS011;8241;48.786;9.250;2022-07-29T10:39:05;3.45;;;3.30;;
16266;SDS011;8241;48.786;9.250;2022-07-29T10:44:39;2.90;;;2.80;;
16266;SDS011;8241;48.786;9.250;2022-07-29T10:47:16;3.38;;;3.28;;
16266;SDS011;8241;48.786;9.250;2022-07-29T10:49:54;3.30;;;3.10;;
16266;SDS011;8241;48.786;9.250;2022-07-29T10:52:23;10.38;;;3.00;;
16266;SDS011;8241;48.786;9.250;2022-07-29T10:54:53;2.95;;;2.78;;
16266;SDS011;8241;48.786;9.250;2022-07-29T10:57:26;3.00;;;2.90;;
16266;SDS011;8241;48.786;9.250;2022-07-29T11:03:03;2.95;;;2.85;;
16266;SDS011;8241;48.786;9.250;2022-07-29T11:08:20;2.75;;;2.65;;
16266;SDS011;8241;48.786;9.250;2022-07-29T11:10:52;2.47;;;2.38;;
16266;SDS011;8241;48.786;9.250;2022-07-29T11:13:48;2.60;;;2.50;;
16266;SDS011;8241;48.786;9.250;2022-07-29T11:16:16;2.50;;;2.40;;
16266;SDS011;8241;48.786;9.250;2022-07-29T11:21:47;1.67;;;1.67;;
16266;SDS011;8241;48.786;9.250;2022-07-29T11:24:17;0.75;;;0.75;;
16266;SDS011;8241;48.786;9.250;2022-07-29T11:29:40;0.40;;;0.40;;
16266;SDS011;8241;48.786;9.250;2022-07-29T11:32:15;1.03;;;0.80;;
16266;SDS011;8241;48.786;9.250;2022-07-29T11:34:45;0.57;;;0.57;;
16266;SDS011;8241;48.786;9.250;2022-07-29T11:37:14;0.60;;;0.60;;
16266;SDS011;8241;48.786;9.250;2022-07-29T11:39:43;0.50;;;0.50;;
16266;SDS011;8241;48.786;9.250;2022-07-29T11:45:26;0.40;;;0.40;;
16266;SDS011;8241;48.786;9.250;2022-07-29T11:48:15;0.57;;;0.57;;
16266;SDS011;8241;48.786;9.250;2022-07-29T11:50:42;0.73;;;0.73;;
16266;SDS011;8241;48.786;9.250;2022-07-29T11:53:11;0.40;;;0.40;;
16266;SDS011;8241;48.786;9.250;2022-07-29T11:55:41;0.47;;;0.47;;
16266;SDS011;8241;48.786;9.250;2022-07-29T11:58:13;0.40;;;0.40;;
16266;SDS011;8241;48.786;9.250;2022-07-29T12:00:42;0.23;;;0.23;;
16266;SDS011;8241;48.786;9.250;2022-07-29T12:03:23;0.20;;;0.20;;
16266;SDS011;8241;48.786;9.250;2022-07-29T12:08:43;0.80;;;0.80;;
16266;SDS011;8241;48.786;9.250;2022-07-29T12:11:17;0.30;;;0.30;;
16266;SDS011;8241;48.786;9.250;2022-07-29T12:13:59;0.70;;;0.70;;
16266;SDS011;8241;48.786;9.250;2022-07-29T12:16:35;0.80;;;0.80;;
16266;SDS011;8241;48.786;9.250;2022-07-29T12:19:05;0.50;;;0.50;;
16266;SDS011;8241;48.786;9.250;2022-07-29T12:21:43;0.30;;;0.30;;
16266;SDS011;8241;48.786;9.250;2022-07-29T12:24:15;1.33;;;0.53;;
16266;SDS011;8241;48.786;9.250;2022-07-29T12:26:49;3.53;;;0.90;;
16266;SDS011;8241;48.786;9.250;2022-07-29T12:29:18;0.60;;;0.60;;
16266;SDS011;8241;48.786;9.250;2022-07-29T12:31:48;0.83;;;0.83;;
16266;SDS011;8241;48.786;9.250;2022-07-29T12:34:20;0.50;;;0.50;;
16266;SDS011;8241;48.786;9.250;2022-07-29T12:36:50;0.70;;;0.70;;
16266;SDS011;8241;48.786;9.250;2022-07-29T12:39:17;0.77;;;0.77;;
16266;SDS011;8241;48.786;9.250;2022-07-29T12:41:45;0.70;;;0.70;;
16266;SDS011;8241;48.786;9.250;2022-07-29T12:44:12;1.03;;;1.03;;
16266;SDS011;8241;48.786;9.250;2022-07-29T12:46:39;0.43;;;0.43;;
16266;SDS011;8241;48.786;9.250;2022-07-29T12:49:08;0.77;;;0.77;;
16266;SDS011;8241;48.786;9.250;2022-07-29T12:51:38;1.10;;;1.00;;
16266;SDS011;8241;48.786;9.250;2022-07-29T12:54:06;0.40;;;0.40;;
16266;SDS011;8241;48.786;9.250;2022-07-29T12:56:35;0.93;;;0.93;;
16266;SDS011;8241;48.786;9.250;2022-07-29T12:59:10;0.70;;;0.70;;
16266;SDS011;8241;48.786;9.250;2022-07-29T13:01:39;1.40;;;0.50;;
16266;SDS011;8241;48.786;9.250;2022-07-29T13:04:07;0.63;;;0.60;;
16266;SDS011;8241;48.786;9.250;2022-07-29T13:06:39;0.70;;;0.70;;
16266;SDS011;8241;48.786;9.250;2022-07-29T13:09:08;0.57;;;0.57;;
16266;SDS011;8241;48.786;9.250;2022-07-29T13:11:37;0.33;;;0.33;;
16266;SDS011;8241;48.786;9.250;2022-07-29T13:14:05;0.57;;;0.57;;
16266;SDS011;8241;48.786;9.250;2022-07-29T13:19:35;0.40;;;0.40;;
16266;SDS011;8241;48.786;9.250;2022-07-29T13:22:07;1.50;;;1.40;;
16266;SDS011;8241;48.786;9.250;2022-07-29T13:24:44;0.63;;;0.63;;
16266;SDS011;8241;48.786;9.250;2022-07-29T13:27:13;0.30;;;0.30;;
16266;SDS011;8241;48.786;9.250;2022-07-29T13:29:40;1.17;;;0.70;;
16266;SDS011;8241;48.786;9.250;2022-07-29T13:32:07;0.90;;;0.90;;
16266;SDS011;8241;48.786;9.250;2022-07-29T13:34:39;0.70;;;0.70;;
16266;SDS011;8241;48.786;9.250;2022-07-29T13:37:06;0.40;;;0.40;;
16266;SDS011;8241;48.786;9.250;2022-07-29T13:39:35;0.73;;;0.73;;
16266;SDS011;8241;48.786;9.250;2022-07-29T13:42:04;0.53;;;0.53;;
16266;SDS011;8241;48.786;9.250;2022-07-29T13:44:34;11.00;;;1.20;;
16266;SDS011;8241;48.786;9.250;2022-07-29T13:49:34;0.60;;;0.60;;
16266;SDS011;8241;48.786;9.250;2022-07-29T13:52:02;1.23;;;1.17;;
16266;SDS011;8241;48.786;9.250;2022-07-29T13:54:39;0.33;;;0.33;;
16266;SDS011;8241;48.786;9.250;2022-07-29T13:57:06;0.40;;;0.40;;
16266;SDS011;8241;48.786;9.250;2022-07-29T13:59:39;0.50;;;0.50;;
16266;SDS011;8241;48.786;9.250;2022-07-29T14:02:07;0.90;;;0.85;;
16266;SDS011;8241;48.786;9.250;2022-07-29T14:04:36;1.00;;;0.80;;
16266;SDS011;8241;48.786;9.250;2022-07-29T14:07:04;0.93;;;0.70;;
16266;SDS011;8241;48.786;9.250;2022-07-29T14:09:31;1.67;;;1.67;;
16266;SDS011;8241;48.786;9.250;2022-07-29T14:11:58;0.47;;;0.47;;
16266;SDS011;8241;48.786;9.250;2022-07-29T14:14:31;1.20;;;1.20;;
16266;SDS011;8241;48.786;9.250;2022-07-29T14:16:57;0.63;;;0.63;;
16266;SDS011;8241;48.786;9.250;2022-07-29T14:19:24;0.70;;;0.70;;
16266;SDS011;8241;48.786;9.250;2022-07-29T14:21:52;0.40;;;0.40;;
16266;SDS011;8241;48.786;9.250;2022-07-29T14:24:20;0.70;;;0.70;;
16266;SDS011;8241;48.786;9.250;2022-07-29T14:26:47;2.67;;;0.93;;
16266;SDS011;8241;48.786;9.250;2022-07-29T14:29:13;1.17;;;0.90;;
16266;SDS011;8241;48.786;9.250;2022-07-29T14:31:40;1.43;;;1.33;;
16266;SDS011;8241;48.786;9.250;2022-07-29T14:34:08;1.00;;;1.00;;
16266;SDS011;8241;48.786;9.250;2022-07-29T14:36:34;1.23;;;1.13;;
16266;SDS011;8241;48.786;9.250;2022-07-29T14:39:01;1.23;;;1.03;;
16266;SDS011;8241;48.786;9.250;2022-07-29T14:41:30;0.97;;;0.97;;
16266;SDS011;8241;48.786;9.250;2022-07-29T14:43:57;1.33;;;1.03;;
16266;SDS011;8241;48.786;9.250;2022-07-29T14:46:25;1.70;;;1.57;;
16266;SDS011;8241;48.786;9.250;2022-07-29T14:48:52;1.17;;;1.07;;
16266;SDS011;8241;48.786;9.250;2022-07-29T14:53:49;0.60;;;0.60;;
16266;SDS011;8241;48.786;9.250;2022-07-29T14:56:16;17.60;;;0.90;;
16266;SDS011;8241;48.786;9.250;2022-07-29T14:58:44;1.03;;;1.03;;
16266;SDS011;8241;48.786;9.250;2022-07-29T15:01:12;0.30;;;0.30;;
16266;SDS011;8241;48.786;9.250;2022-07-29T15:03:39;1.30;;;1.20;;
16266;SDS011;8241;48.786;9.250;2022-07-29T15:06:06;0.60;;;0.60;;
16266;SDS011;8241;48.786;9.250;2022-07-29T15:08:32;0.37;;;0.37;;
16266;SDS011;8241;48.786;9.250;2022-07-29T15:11:05;1.03;;;0.83;;
16266;SDS011;8241;48.786;9.250;2022-07-29T15:13:32;0.57;;;0.57;;
16266;SDS011;8241;48.786;9.250;2022-07-29T15:16:01;1.07;;;0.97;;
16266;SDS011;8241;48.786;9.250;2022-07-29T15:18:29;2.03;;;1.07;;
16266;SDS011;8241;48.786;9.250;2022-07-29T15:20:56;0.90;;;0.90;;
16266;SDS011;8241;48.786;9.250;2022-07-29T15:23:22;1.63;;;1.17;;
16266;SDS011;8241;48.786;9.250;2022-07-29T15:25:50;0.40;;;0.40;;
16266;SDS011;8241;48.786;9.250;2022-07-29T15:28:17;0.93;;;0.60;;
16266;SDS011;8241;48.786;9.250;2022-07-29T15:30:45;1.93;;;1.83;;
16266;SDS011;8241;48.786;9.250;2022-07-29T15:33:13;0.47;;;0.47;;
16266;SDS011;8241;48.786;9.250;2022-07-29T15:35:40;3.13;;;0.90;;
16266;SDS011;8241;48.786;9.250;2022-07-29T15:38:07;1.13;;;1.10;;
16266;SDS011;8241;48.786;9.250;2022-07-29T15:40:39;2.67;;;0.80;;
16266;SDS011;8241;48.786;9.250;2022-07-29T15:43:09;1.20;;;0.77;;
16266;SDS011;8241;48.786;9.250;2022-07-29T15:45:37;0.73;;;0.73;;
16266;SDS011;8241;48.786;9.250;2022-07-29T15:48:04;1.03;;;1.00;;
16266;SDS011;8241;48.786;9.250;2022-07-29T15:50:32;0.80;;;0.80;;
16266;SDS011;8241;48.786;9.250;2022-07-29T15:52:59;1.03;;;1.00;;
16266;SDS011;8241;48.786;9.250;2022-07-29T15:55:26;1.73;;;0.77;;
16266;SDS011;8241;48.786;9.250;2022-07-29T15:57:53;0.70;;;0.70;;
16266;SDS011;8241;48.786;9.250;2022-07-29T16:00:20;0.40;;;0.40;;
16266;SDS011;8241;48.786;9.250;2022-07-29T16:02:48;0.60;;;0.60;;
16266;SDS011;8241;48.786;9.250;2022-07-29T16:05:16;1.27;;;1.17;;
16266;SDS011;8241;48.786;9.250;2022-07-29T16:07:44;0.77;;;0.77;;
16266;SDS011;8241;48.786;9.250;2022-07-29T16:10:11;0.70;;;0.67;;
16266;SDS011;8241;48.786;9.250;2022-07-29T16:12:38;0.70;;;0.70;;
16266;SDS011;8241;48.786;9.250;2022-07-29T16:15:06;1.37;;;0.77;;
16266;SDS011;8241;48.786;9.250;2022-07-29T16:17:34;1.13;;;0.70;;
16266;SDS011;8241;48.786;9.250;2022-07-29T16:20:02;0.40;;;0.40;;
16266;SDS011;8241;48.786;9.250;2022-07-29T16:22:30;0.77;;;0.77;;
16266;SDS011;8241;48.786;9.250;2022-07-29T16:24:58;1.10;;;1.03;;